sensor_id;sensor_type;location;lat;lon;timestamp;pressure;altitude;pressure_sealevel;temperature;humidity
26043;BME280;13818;52.156;5.382;2023-05-08T00:00:05;101837.97;;;14.45;100.00
26043;BME280;13818;52.156;5.382;2023-05-08T00:02:32;101840.69;;;14.43;100.00
26043;BME280;13818;52.156;5.382;2023-05-08T00:04:58;101849.53;;;14.45;100.00
26043;BME280;13818;52.156;5.382;2023-05-08T00:07:25;101855.94;;;14.43;100.00
26043;BME280;13818;52.156;5.382;2023-05-08T00:09:52;101847.44;;;14.33;100.00
26043;BME280;13818;52.156;5.382;2023-05-08T00:12:20;101855.63;;;14.30;100.00
26043;BME280;13818;52.156;5.382;2023-05-08T00:14:46;101845.91;;;14.27;100.00
26043;BME280;13818;52.156;5.382;2023-05-08T00:17:13;101841.94;;;14.36;100.00
26043;BME280;13818;52.156;5.382;2023-05-08T00:19:39;101835.84;;;14.32;100.00
26043;BME280;13818;52.156;5.382;2023-05-08T00:22:06;101827.72;;;14.34;100.00
26043;BME280;13818;52.156;5.382;2023-05-08T00:24:32;101823.16;;;14.36;100.00
26043;BME280;13818;52.156;5.382;2023-05-08T00:26:59;101825.19;;;14.31;100.00
26043;BME280;13818;52.156;5.382;2023-05-08T00:29:27;101816.19;;;14.32;100.00
26043;BME280;13818;52.156;5.382;2023-05-08T00:31:54;101819.59;;;14.36;100.00
26043;BME280;13818;52.156;5.382;2023-05-08T00:34:21;101828.66;;;14.33;100.00
26043;BME280;13818;52.156;5.382;2023-05-08T00:36:47;101818.84;;;14.32;100.00
26043;BME280;13818;52.156;5.382;2023-05-08T00:39:14;101821.63;;;14.30;100.00
26043;BME280;13818;52.156;5.382;2023-05-08T00:41:40;101826.13;;;14.30;100.00
26043;BME280;13818;52.156;5.382;2023-05-08T00:44:07;101823.38;;;14.31;100.00
26043;BME280;13818;52.156;5.382;2023-05-08T00:46:35;101826.69;;;14.37;100.00
26043;BME280;13818;52.156;5.382;2023-05-08T00:49:03;101826.06;;;14.31;100.00
26043;BME280;13818;52.156;5.382;2023-05-08T00:51:30;101821.81;;;14.26;100.00
26043;BME280;13818;52.156;5.382;2023-05-08T00:53:58;101819.44;;;14.20;100.00
26043;BME280;13818;52.156;5.382;2023-05-08T00:56:27;101822.25;;;14.16;100.00
26043;BME280;13818;52.156;5.382;2023-05-08T00:58:54;101827.50;;;14.20;100.00
26043;BME280;13818;52.156;5.382;2023-05-08T01:01:21;101833.25;;;14.31;100.00
26043;BME280;13818;52.156;5.382;2023-05-08T01:03:49;101832.34;;;14.30;100.00
26043;BME280;13818;52.156;5.382;2023-05-08T01:06:15;101826.41;;;14.24;100.00
26043;BME280;13818;52.156;5.382;2023-05-08T01:08:43;101829.28;;;14.19;100.00
26043;BME280;13818;52.156;5.382;2023-05-08T01:11:14;101824.66;;;14.23;100.00
26043;BME280;13818;52.156;5.382;2023-05-08T01:13:50;101823.56;;;14.27;100.00
26043;BME280;13818;52.156;5.382;2023-05-08T01:16:23;101825.41;;;14.26;100.00
26043;BME280;13818;52.156;5.382;2023-05-08T01:19:00;101826.25;;;14.27;100.00
26043;BME280;13818;52.156;5.382;2023-05-08T01:21:34;101819.16;;;14.26;100.00
26043;BME280;13818;52.156;5.382;2023-05-08T01:24:21;101823.72;;;14.24;100.00
26043;BME280;13818;52.156;5.382;2023-05-08T01:27:16;101825.69;;;14.20;100.00
26043;BME280;13818;52.156;5.382;2023-05-08T01:32:37;101824.28;;;14.11;100.00
26043;BME280;13818;52.156;5.382;2023-05-08T01:35:11;101828.84;;;14.09;100.00
26043;BME280;13818;52.156;5.382;2023-05-08T01:37:48;101830.56;;;14.10;100.00
26043;BME280;13818;52.156;5.382;2023-05-08T01:40:22;101838.63;;;14.10;100.00
26043;BME280;13818;52.156;5.382;2023-05-08T01:42:57;101835.56;;;13.99;100.00
26043;BME280;13818;52.156;5.382;2023-05-08T01:45:31;101832.28;;;13.92;100.00
26043;BME280;13818;52.156;5.382;2023-05-08T01:48:04;101836.09;;;13.87;100.00
26043;BME280;13818;52.156;5.382;2023-05-08T01:50:37;101831.53;;;13.89;100.00
26043;BME280;13818;52.156;5.382;2023-05-08T01:53:09;101827.13;;;13.88;100.00
26043;BME280;13818;52.156;5.382;2023-05-08T01:55:39;101829.88;;;13.86;100.00
26043;BME280;13818;52.156;5.382;2023-05-08T01:58:08;101829.88;;;13.86;100.00
26043;BME280;13818;52.156;5.382;2023-05-08T02:00:36;101833.41;;;13.87;100.00
26043;BME280;13818;52.156;5.382;2023-05-08T02:03:06;101831.56;;;13.68;100.00
26043;BME280;13818;52.156;5.382;2023-05-08T02:05:36;101843.47;;;13.61;100.00
26043;BME280;13818;52.156;5.382;2023-05-08T02:08:03;101846.41;;;13.55;100.00
26043;BME280;13818;52.156;5.382;2023-05-08T02:10:30;101845.06;;;13.65;100.00
26043;BME280;13818;52.156;5.382;2023-05-08T02:12:58;101839.59;;;13.68;100.00
26043;BME280;13818;52.156;5.382;2023-05-08T02:15:26;101845.41;;;13.57;100.00
26043;BME280;13818;52.156;5.382;2023-05-08T02:17:55;101845.75;;;13.49;100.00
26043;BME280;13818;52.156;5.382;2023-05-08T02:20:25;101844.91;;;13.47;100.00
26043;BME280;13818;52.156;5.382;2023-05-08T02:22:53;101847.94;;;13.40;100.00
26043;BME280;13818;52.156;5.382;2023-05-08T02:25:21;101843.63;;;13.35;100.00
26043;BME280;13818;52.156;5.382;2023-05-08T02:27:52;101854.66;;;13.28;100.00
26043;BME280;13818;52.156;5.382;2023-05-08T02:30:21;101848.63;;;13.23;100.00
26043;BME280;13818;52.156;5.382;2023-05-08T02:32:50;101851.66;;;13.13;100.00
26043;BME280;13818;52.156;5.382;2023-05-08T02:35:18;101859.25;;;13.02;100.00
26043;BME280;13818;52.156;5.382;2023-05-08T02:37:49;101856.19;;;12.89;100.00
26043;BME280;13818;52.156;5.382;2023-05-08T02:40:17;101850.25;;;12.81;100.00
26043;BME280;13818;52.156;5.382;2023-05-08T02:42:45;101854.06;;;12.75;100.00
26043;BME280;13818;52.156;5.382;2023-05-08T02:45:13;101855.13;;;12.71;100.00
26043;BME280;13818;52.156;5.382;2023-05-08T02:47:44;101850.06;;;12.63;100.00
26043;BME280;13818;52.156;5.382;2023-05-08T02:50:16;101856.44;;;12.59;100.00
26043;BME280;13818;52.156;5.382;2023-05-08T02:52:48;101854.59;;;12.61;100.00
26043;BME280;13818;52.156;5.382;2023-05-08T02:55:26;101850.06;;;12.63;100.00
26043;BME280;13818;52.156;5.382;2023-05-08T02:58:05;101850.94;;;12.64;100.00
26043;BME280;13818;52.156;5.382;2023-05-08T03:00:39;101857.09;;;12.66;100.00
26043;BME280;13818;52.156;5.382;2023-05-08T03:03:12;101842.59;;;12.72;100.00
26043;BME280;13818;52.156;5.382;2023-05-08T03:05:46;101843.59;;;12.69;100.00
26043;BME280;13818;52.156;5.382;2023-05-08T03:08:18;101832.91;;;12.69;100.00
26043;BME280;13818;52.156;5.382;2023-05-08T03:10:48;101837.41;;;12.68;100.00
26043;BME280;13818;52.156;5.382;2023-05-08T03:13:18;101838.41;;;12.64;100.00
26043;BME280;13818;52.156;5.382;2023-05-08T03:15:47;101832.22;;;12.64;100.00
26043;BME280;13818;52.156;5.382;2023-05-08T03:18:17;101828.50;;;12.44;100.00
26043;BME280;13818;52.156;5.382;2023-05-08T03:20:47;101840.16;;;12.43;100.00
26043;BME280;13818;52.156;5.382;2023-05-08T03:23:17;101835.44;;;12.50;100.00
26043;BME280;13818;52.156;5.382;2023-05-08T03:25:45;101832.81;;;12.48;100.00
26043;BME280;13818;52.156;5.382;2023-05-08T03:28:12;101828.41;;;12.47;100.00
26043;BME280;13818;52.156;5.382;2023-05-08T03:30:40;101833.75;;;12.47;100.00
26043;BME280;13818;52.156;5.382;2023-05-08T03:33:07;101838.09;;;12.50;100.00
26043;BME280;13818;52.156;5.382;2023-05-08T03:35:35;101838.25;;;12.45;100.00
26043;BME280;13818;52.156;5.382;2023-05-08T03:38:02;101835.72;;;12.42;100.00
26043;BME280;13818;52.156;5.382;2023-05-08T03:40:32;101833.13;;;12.41;100.00
26043;BME280;13818;52.156;5.382;2023-05-08T03:43:01;101830.47;;;12.39;100.00
26043;BME280;13818;52.156;5.382;2023-05-08T03:45:29;101829.38;;;12.45;100.00
26043;BME280;13818;52.156;5.382;2023-05-08T03:47:57;101830.19;;;12.47;100.00
26043;BME280;13818;52.156;5.382;2023-05-08T03:50:25;101831.88;;;12.49;100.00
26043;BME280;13818;52.156;5.382;2023-05-08T03:52:52;101837.47;;;12.43;100.00
26043;BME280;13818;52.156;5.382;2023-05-08T03:55:19;101828.84;;;12.35;100.00
26043;BME280;13818;52.156;5.382;2023-05-08T03:57:52;101831.59;;;12.33;100.00
26043;BME280;13818;52.156;5.382;2023-05-08T04:00:28;101831.47;;;12.36;100.00
26043;BME280;13818;52.156;5.382;2023-05-08T04:03:10;101832.28;;;12.39;100.00
26043;BME280;13818;52.156;5.382;2023-05-08T04:05:45;101829.31;;;12.46;100.00
26043;BME280;13818;52.156;5.382;2023-05-08T04:08:16;101833.28;;;12.60;100.00
26043;BME280;13818;52.156;5.382;2023-05-08T04:10:48;101834.88;;;12.64;100.00
26043;BME280;13818;52.156;5.382;2023-05-08T04:13:22;101836.34;;;12.73;100.00
26043;BME280;13818;52.156;5.382;2023-05-08T04:15:52;101837.63;;;12.84;100.00
26043;BME280;13818;52.156;5.382;2023-05-08T04:18:24;101830.81;;;12.77;100.00
26043;BME280;13818;52.156;5.382;2023-05-08T04:20:55;101841.63;;;12.74;100.00
26043;BME280;13818;52.156;5.382;2023-05-08T04:23:22;101841.19;;;12.85;100.00
26043;BME280;13818;52.156;5.382;2023-05-08T04:25:51;101838.16;;;12.94;100.00
26043;BME280;13818;52.156;5.382;2023-05-08T04:28:19;101838.66;;;13.04;100.00
26043;BME280;13818;52.156;5.382;2023-05-08T04:30:47;101836.41;;;13.15;100.00
26043;BME280;13818;52.156;5.382;2023-05-08T04:33:14;101844.88;;;13.27;100.00
26043;BME280;13818;52.156;5.382;2023-05-08T04:35:43;101844.72;;;13.30;100.00
26043;BME280;13818;52.156;5.382;2023-05-08T04:38:10;101847.50;;;13.50;100.00
26043;BME280;13818;52.156;5.382;2023-05-08T04:40:37;101844.22;;;13.64;100.00
26043;BME280;13818;52.156;5.382;2023-05-08T04:43:03;101845.88;;;13.88;100.00
26043;BME280;13818;52.156;5.382;2023-05-08T04:45:31;101846.91;;;14.25;100.00
26043;BME280;13818;52.156;5.382;2023-05-08T04:47:58;101842.03;;;14.54;100.00
26043;BME280;13818;52.156;5.382;2023-05-08T04:50:24;101841.00;;;14.56;100.00
26043;BME280;13818;52.156;5.382;2023-05-08T04:52:51;101847.53;;;14.89;100.00
26043;BME280;13818;52.156;5.382;2023-05-08T04:55:17;101846.31;;;14.77;100.00
26043;BME280;13818;52.156;5.382;2023-05-08T04:57:44;101851.84;;;14.74;100.00
26043;BME280;13818;52.156;5.382;2023-05-08T05:00:11;101848.66;;;14.66;100.00
26043;BME280;13818;52.156;5.382;2023-05-08T05:02:39;101847.53;;;14.70;100.00
26043;BME280;13818;52.156;5.382;2023-05-08T05:05:06;101856.97;;;14.78;100.00
26043;BME280;13818;52.156;5.382;2023-05-08T05:07:33;101852.59;;;15.32;100.00
26043;BME280;13818;52.156;5.382;2023-05-08T05:10:00;101861.03;;;15.24;100.00
26043;BME280;13818;52.156;5.382;2023-05-08T05:12:26;101865.09;;;15.33;100.00
26043;BME280;13818;52.156;5.382;2023-05-08T05:14:52;101869.03;;;15.25;100.00
26043;BME280;13818;52.156;5.382;2023-05-08T05:17:19;101867.00;;;15.11;100.00
26043;BME280;13818;52.156;5.382;2023-05-08T05:19:47;101868.06;;;15.26;100.00
26043;BME280;13818;52.156;5.382;2023-05-08T05:22:13;101878.47;;;15.15;100.00
26043;BME280;13818;52.156;5.382;2023-05-08T05:24:40;101876.00;;;15.29;100.00
26043;BME280;13818;52.156;5.382;2023-05-08T05:27:06;101872.94;;;15.37;100.00
26043;BME280;13818;52.156;5.382;2023-05-08T05:29:33;101869.53;;;15.51;100.00
26043;BME280;13818;52.156;5.382;2023-05-08T05:32:00;101862.94;;;15.76;100.00
26043;BME280;13818;52.156;5.382;2023-05-08T05:34:27;101875.94;;;15.49;100.00
26043;BME280;13818;52.156;5.382;2023-05-08T05:36:55;101870.75;;;15.26;100.00
26043;BME280;13818;52.156;5.382;2023-05-08T05:39:21;101870.38;;;15.34;100.00
26043;BME280;13818;52.156;5.382;2023-05-08T05:41:48;101881.06;;;15.36;100.00
26043;BME280;13818;52.156;5.382;2023-05-08T05:44:14;101881.84;;;15.38;100.00
26043;BME280;13818;52.156;5.382;2023-05-08T05:46:41;101887.47;;;15.51;100.00
26043;BME280;13818;52.156;5.382;2023-05-08T05:49:07;101885.34;;;15.40;100.00
26043;BME280;13818;52.156;5.382;2023-05-08T05:51:34;101882.41;;;15.27;100.00
26043;BME280;13818;52.156;5.382;2023-05-08T05:54:02;101885.13;;;15.44;100.00
26043;BME280;13818;52.156;5.382;2023-05-08T05:56:28;101897.91;;;15.74;100.00
26043;BME280;13818;52.156;5.382;2023-05-08T05:58:55;101898.00;;;15.73;100.00
26043;BME280;13818;52.156;5.382;2023-05-08T06:01:22;101890.75;;;15.75;100.00
26043;BME280;13818;52.156;5.382;2023-05-08T06:03:49;101893.66;;;15.70;100.00
26043;BME280;13818;52.156;5.382;2023-05-08T06:06:15;101890.72;;;15.57;100.00
26043;BME280;13818;52.156;5.382;2023-05-08T06:08:42;101896.19;;;15.73;100.00
26043;BME280;13818;52.156;5.382;2023-05-08T06:11:10;101891.72;;;16.09;100.00
26043;BME280;13818;52.156;5.382;2023-05-08T06:13:38;101898.00;;;16.25;100.00
26043;BME280;13818;52.156;5.382;2023-05-08T06:16:07;101885.06;;;16.66;100.00
26043;BME280;13818;52.156;5.382;2023-05-08T06:18:33;101888.22;;;17.22;100.00
26043;BME280;13818;52.156;5.382;2023-05-08T06:21:00;101892.06;;;17.18;100.00
26043;BME280;13818;52.156;5.382;2023-05-08T06:23:26;101887.53;;;17.18;100.00
26043;BME280;13818;52.156;5.382;2023-05-08T06:25:53;101890.28;;;17.79;100.00
26043;BME280;13818;52.156;5.382;2023-05-08T06:28:21;101897.47;;;17.95;100.00
26043;BME280;13818;52.156;5.382;2023-05-08T06:30:50;101889.38;;;17.95;100.00
26043;BME280;13818;52.156;5.382;2023-05-08T06:33:16;101896.72;;;18.07;100.00
26043;BME280;13818;52.156;5.382;2023-05-08T06:35:45;101892.97;;;18.82;100.00
26043;BME280;13818;52.156;5.382;2023-05-08T06:38:11;101887.44;;;19.52;100.00
26043;BME280;13818;52.156;5.382;2023-05-08T06:40:40;101894.69;;;19.79;100.00
26043;BME280;13818;52.156;5.382;2023-05-08T06:43:07;101888.22;;;19.95;100.00
26043;BME280;13818;52.156;5.382;2023-05-08T06:45:35;101894.47;;;20.60;100.00
26043;BME280;13818;52.156;5.382;2023-05-08T06:48:02;101896.94;;;20.89;100.00
26043;BME280;13818;52.156;5.382;2023-05-08T06:50:29;101898.88;;;21.24;100.00
26043;BME280;13818;52.156;5.382;2023-05-08T06:52:56;101892.34;;;21.26;100.00
26043;BME280;13818;52.156;5.382;2023-05-08T06:55:22;101899.44;;;20.79;100.00
26043;BME280;13818;52.156;5.382;2023-05-08T06:57:49;101894.97;;;21.52;100.00
26043;BME280;13818;52.156;5.382;2023-05-08T07:00:16;101892.59;;;21.72;100.00
26043;BME280;13818;52.156;5.382;2023-05-08T07:02:44;101897.50;;;22.14;100.00
26043;BME280;13818;52.156;5.382;2023-05-08T07:05:10;101895.53;;;21.20;100.00
26043;BME280;13818;52.156;5.382;2023-05-08T07:07:37;101912.41;;;21.00;100.00
26043;BME280;13818;52.156;5.382;2023-05-08T07:10:04;101909.09;;;20.83;100.00
26043;BME280;13818;52.156;5.382;2023-05-08T07:12:30;101894.50;;;20.47;100.00
26043;BME280;13818;52.156;5.382;2023-05-08T07:14:57;101892.03;;;20.18;100.00
26043;BME280;13818;52.156;5.382;2023-05-08T07:17:24;101905.91;;;20.13;100.00
26043;BME280;13818;52.156;5.382;2023-05-08T07:19:52;101910.44;;;20.13;100.00
26043;BME280;13818;52.156;5.382;2023-05-08T07:22:18;101894.50;;;19.95;100.00
26043;BME280;13818;52.156;5.382;2023-05-08T07:24:45;101892.44;;;19.59;100.00
26043;BME280;13818;52.156;5.382;2023-05-08T07:27:11;101900.91;;;19.27;100.00
26043;BME280;13818;52.156;5.382;2023-05-08T07:29:39;101903.13;;;18.93;100.00
26043;BME280;13818;52.156;5.382;2023-05-08T07:32:07;101898.06;;;18.72;100.00
26043;BME280;13818;52.156;5.382;2023-05-08T07:34:33;101896.06;;;18.61;100.00
26043;BME280;13818;52.156;5.382;2023-05-08T07:37:01;101895.88;;;18.50;100.00
26043;BME280;13818;52.156;5.382;2023-05-08T07:39:27;101900.03;;;18.56;100.00
26043;BME280;13818;52.156;5.382;2023-05-08T07:41:54;101890.47;;;18.64;100.00
26043;BME280;13818;52.156;5.382;2023-05-08T07:44:21;101903.00;;;18.36;100.00
26043;BME280;13818;52.156;5.382;2023-05-08T07:46:48;101896.34;;;18.13;100.00
26043;BME280;13818;52.156;5.382;2023-05-08T07:49:14;101897.22;;;18.14;100.00
26043;BME280;13818;52.156;5.382;2023-05-08T07:51:42;101892.44;;;18.33;100.00
26043;BME280;13818;52.156;5.382;2023-05-08T07:54:09;101899.94;;;18.28;100.00
26043;BME280;13818;52.156;5.382;2023-05-08T07:56:36;101903.97;;;18.35;100.00
26043;BME280;13818;52.156;5.382;2023-05-08T07:59:02;101903.22;;;18.62;100.00
26043;BME280;13818;52.156;5.382;2023-05-08T08:01:29;101905.78;;;18.78;100.00
26043;BME280;13818;52.156;5.382;2023-05-08T08:03:55;101898.72;;;19.05;100.00
26043;BME280;13818;52.156;5.382;2023-05-08T08:06:22;101894.16;;;19.19;100.00
26043;BME280;13818;52.156;5.382;2023-05-08T08:08:48;101900.50;;;19.33;100.00
26043;BME280;13818;52.156;5.382;2023-05-08T08:11:16;101899.31;;;19.37;100.00
26043;BME280;13818;52.156;5.382;2023-05-08T08:13:42;101899.44;;;19.21;100.00
26043;BME280;13818;52.156;5.382;2023-05-08T08:16:09;101899.63;;;19.05;100.00
26043;BME280;13818;52.156;5.382;2023-05-08T08:18:35;101910.81;;;18.99;100.00
26043;BME280;13818;52.156;5.382;2023-05-08T08:21:04;101910.53;;;18.60;100.00
26043;BME280;13818;52.156;5.382;2023-05-08T08:23:30;101901.66;;;18.58;100.00
26043;BME280;13818;52.156;5.382;2023-05-08T08:25:57;101906.66;;;18.64;100.00
26043;BME280;13818;52.156;5.382;2023-05-08T08:28:25;101908.03;;;18.57;100.00
26043;BME280;13818;52.156;5.382;2023-05-08T08:30:52;101903.03;;;18.51;100.00
26043;BME280;13818;52.156;5.382;2023-05-08T08:33:19;101897.06;;;18.46;100.00
26043;BME280;13818;52.156;5.382;2023-05-08T08:35:45;101900.13;;;18.25;100.00
26043;BME280;13818;52.156;5.382;2023-05-08T08:38:12;101906.00;;;18.32;100.00
26043;BME280;13818;52.156;5.382;2023-05-08T08:40:38;101900.41;;;18.35;100.00
26043;BME280;13818;52.156;5.382;2023-05-08T08:43:05;101893.88;;;18.53;100.00
26043;BME280;13818;52.156;5.382;2023-05-08T08:45:35;101892.03;;;18.40;100.00
26043;BME280;13818;52.156;5.382;2023-05-08T08:48:02;101896.28;;;18.44;100.00
26043;BME280;13818;52.156;5.382;2023-05-08T08:50:30;101901.38;;;18.77;100.00
26043;BME280;13818;52.156;5.382;2023-05-08T08:53:00;101900.31;;;18.80;100.00
26043;BME280;13818;52.156;5.382;2023-05-08T08:55:29;101896.69;;;19.08;100.00
26043;BME280;13818;52.156;5.382;2023-05-08T08:58:13;101895.84;;;19.08;100.00
26043;BME280;13818;52.156;5.382;2023-05-08T09:00:44;101901.31;;;19.21;100.00
26043;BME280;13818;52.156;5.382;2023-05-08T09:03:12;101905.47;;;19.12;100.00
26043;BME280;13818;52.156;5.382;2023-05-08T09:05:39;101902.72;;;19.26;100.00
26043;BME280;13818;52.156;5.382;2023-05-08T09:08:06;101902.06;;;19.23;100.00
26043;BME280;13818;52.156;5.382;2023-05-08T09:10:33;101898.00;;;19.43;100.00
26043;BME280;13818;52.156;5.382;2023-05-08T09:13:00;101896.47;;;19.66;100.00
26043;BME280;13818;52.156;5.382;2023-05-08T09:15:27;101898.22;;;19.67;100.00
26043;BME280;13818;52.156;5.382;2023-05-08T09:17:54;101894.31;;;19.98;100.00
26043;BME280;13818;52.156;5.382;2023-05-08T09:20:21;101893.66;;;19.95;100.00
26043;BME280;13818;52.156;5.382;2023-05-08T09:22:48;101896.38;;;19.80;100.00
26043;BME280;13818;52.156;5.382;2023-05-08T09:25:14;101901.19;;;19.49;100.00
26043;BME280;13818;52.156;5.382;2023-05-08T09:27:43;101891.59;;;19.58;100.00
26043;BME280;13818;52.156;5.382;2023-05-08T09:30:11;101893.22;;;19.61;100.00
26043;BME280;13818;52.156;5.382;2023-05-08T09:32:39;101895.16;;;19.86;100.00
26043;BME280;13818;52.156;5.382;2023-05-08T09:35:09;101897.00;;;19.98;100.00
26043;BME280;13818;52.156;5.382;2023-05-08T09:37:37;101897.31;;;20.07;100.00
26043;BME280;13818;52.156;5.382;2023-05-08T09:40:14;101901.22;;;19.90;100.00
26043;BME280;13818;52.156;5.382;2023-05-08T09:42:41;101903.38;;;20.23;100.00
26043;BME280;13818;52.156;5.382;2023-05-08T09:45:09;101902.94;;;20.42;100.00
26043;BME280;13818;52.156;5.382;2023-05-08T09:47:35;101900.56;;;20.51;100.00
26043;BME280;13818;52.156;5.382;2023-05-08T09:50:05;101902.50;;;20.61;100.00
26043;BME280;13818;52.156;5.382;2023-05-08T09:52:34;101896.13;;;20.49;100.00
26043;BME280;13818;52.156;5.382;2023-05-08T09:55:01;101904.28;;;20.24;100.00
26043;BME280;13818;52.156;5.382;2023-05-08T09:57:29;101897.00;;;20.24;100.00
26043;BME280;13818;52.156;5.382;2023-05-08T10:00:00;101906.84;;;20.38;100.00
26043;BME280;13818;52.156;5.382;2023-05-08T10:02:27;101907.94;;;20.23;100.00
26043;BME280;13818;52.156;5.382;2023-05-08T10:04:54;101900.56;;;20.51;100.00
26043;BME280;13818;52.156;5.382;2023-05-08T10:07:34;101908.91;;;20.60;100.00
26043;BME280;13818;52.156;5.382;2023-05-08T10:10:02;101902.72;;;20.71;100.00
26043;BME280;13818;52.156;5.382;2023-05-08T10:12:31;101898.09;;;20.47;100.00
26043;BME280;13818;52.156;5.382;2023-05-08T10:14:58;101900.97;;;20.57;100.00
26043;BME280;13818;52.156;5.382;2023-05-08T10:17:26;101901.44;;;20.77;100.00
26043;BME280;13818;52.156;5.382;2023-05-08T10:19:58;101902.72;;;20.84;100.00
26043;BME280;13818;52.156;5.382;2023-05-08T10:22:27;101903.13;;;20.91;100.00
26043;BME280;13818;52.156;5.382;2023-05-08T10:24:57;101895.91;;;21.03;100.00
26043;BME280;13818;52.156;5.382;2023-05-08T10:27:40;101897.59;;;20.92;100.00
26043;BME280;13818;52.156;5.382;2023-05-08T10:30:09;101889.00;;;20.99;100.00
26043;BME280;13818;52.156;5.382;2023-05-08T10:32:38;101896.53;;;20.82;100.00
26043;BME280;13818;52.156;5.382;2023-05-08T10:35:09;101896.94;;;20.89;100.00
26043;BME280;13818;52.156;5.382;2023-05-08T10:37:38;101895.25;;;20.75;100.00
26043;BME280;13818;52.156;5.382;2023-05-08T10:40:08;101898.56;;;20.91;100.00
26043;BME280;13818;52.156;5.382;2023-05-08T10:42:37;101902.34;;;20.89;100.00
26043;BME280;13818;52.156;5.382;2023-05-08T10:45:06;101890.88;;;21.22;100.00
26043;BME280;13818;52.156;5.382;2023-05-08T10:47:42;101893.91;;;21.42;100.00
26043;BME280;13818;52.156;5.382;2023-05-08T10:50:21;101886.19;;;21.49;100.00
26043;BME280;13818;52.156;5.382;2023-05-08T10:52:53;101898.41;;;21.54;100.00
26043;BME280;13818;52.156;5.382;2023-05-08T10:55:27;101894.91;;;21.41;100.00
26043;BME280;13818;52.156;5.382;2023-05-08T10:58:04;101888.59;;;21.65;100.00
26043;BME280;13818;52.156;5.382;2023-05-08T11:00:32;101892.91;;;21.91;100.00
26043;BME280;13818;52.156;5.382;2023-05-08T11:03:19;101888.63;;;21.76;100.00
26043;BME280;13818;52.156;5.382;2023-05-08T11:05:47;101888.94;;;21.96;100.00
26043;BME280;13818;52.156;5.382;2023-05-08T11:08:16;101888.94;;;21.84;100.00
26043;BME280;13818;52.156;5.382;2023-05-08T11:10:50;101886.09;;;21.26;100.00
26043;BME280;13818;52.156;5.382;2023-05-08T11:13:17;101888.75;;;21.15;100.00
26043;BME280;13818;52.156;5.382;2023-05-08T11:15:49;101883.25;;;21.27;100.00
26043;BME280;13818;52.156;5.382;2023-05-08T11:18:16;101879.84;;;21.37;100.00
26043;BME280;13818;52.156;5.382;2023-05-08T11:20:54;101881.22;;;21.42;100.00
26043;BME280;13818;52.156;5.382;2023-05-08T11:23:21;101870.56;;;21.04;100.00
26043;BME280;13818;52.156;5.382;2023-05-08T11:25:57;101878.28;;;21.21;100.00
26043;BME280;13818;52.156;5.382;2023-05-08T11:28:24;101870.16;;;21.21;100.00
26043;BME280;13818;52.156;5.382;2023-05-08T11:30:52;101878.09;;;20.87;100.00
26043;BME280;13818;52.156;5.382;2023-05-08T11:33:20;101867.25;;;21.11;100.00
26043;BME280;13818;52.156;5.382;2023-05-08T11:35:50;101861.63;;;21.15;100.00
26043;BME280;13818;52.156;5.382;2023-05-08T11:38:19;101869.56;;;21.29;100.00
26043;BME280;13818;52.156;5.382;2023-05-08T11:40:53;101858.16;;;21.37;100.00
26043;BME280;13818;52.156;5.382;2023-05-08T11:43:25;101861.50;;;21.40;100.00
26043;BME280;13818;52.156;5.382;2023-05-08T11:45:52;101849.44;;;21.80;100.00
26043;BME280;13818;52.156;5.382;2023-05-08T11:48:19;101850.78;;;21.74;100.00
26043;BME280;13818;52.156;5.382;2023-05-08T11:50:53;101849.66;;;21.66;100.00
26043;BME280;13818;52.156;5.382;2023-05-08T11:53:21;101852.84;;;21.59;100.00
26043;BME280;13818;52.156;5.382;2023-05-08T11:55:50;101854.84;;;21.69;100.00
26043;BME280;13818;52.156;5.382;2023-05-08T11:58:19;101862.75;;;21.72;100.00
26043;BME280;13818;52.156;5.382;2023-05-08T12:00:47;101856.34;;;21.84;100.00
26043;BME280;13818;52.156;5.382;2023-05-08T12:03:16;101850.19;;;21.82;100.00
26043;BME280;13818;52.156;5.382;2023-05-08T12:05:43;101847.47;;;21.82;100.00
26043;BME280;13818;52.156;5.382;2023-05-08T12:08:11;101851.28;;;21.80;100.00
26043;BME280;13818;52.156;5.382;2023-05-08T12:10:39;101843.06;;;21.92;100.00
26043;BME280;13818;52.156;5.382;2023-05-08T12:13:16;101839.63;;;22.02;100.00
26043;BME280;13818;52.156;5.382;2023-05-08T12:15:43;101848.63;;;22.25;100.00
26043;BME280;13818;52.156;5.382;2023-05-08T12:18:11;101839.63;;;22.36;100.00
26043;BME280;13818;52.156;5.382;2023-05-08T12:20:38;101838.88;;;22.34;100.00
26043;BME280;13818;52.156;5.382;2023-05-08T12:23:04;101839.53;;;22.37;100.00
26043;BME280;13818;52.156;5.382;2023-05-08T12:25:33;101829.88;;;22.33;100.00
26043;BME280;13818;52.156;5.382;2023-05-08T12:27:59;101834.06;;;22.60;100.00
26043;BME280;13818;52.156;5.382;2023-05-08T12:30:27;101836.94;;;22.58;100.00
26043;BME280;13818;52.156;5.382;2023-05-08T12:32:54;101842.09;;;22.50;100.00
26043;BME280;13818;52.156;5.382;2023-05-08T12:35:21;101832.84;;;22.41;100.00
26043;BME280;13818;52.156;5.382;2023-05-08T12:37:49;101827.78;;;22.59;100.00
26043;BME280;13818;52.156;5.382;2023-05-08T12:40:25;101840.16;;;22.41;100.00
26043;BME280;13818;52.156;5.382;2023-05-08T12:42:51;101830.09;;;22.30;100.00
26043;BME280;13818;52.156;5.382;2023-05-08T12:45:18;101821.97;;;22.07;100.00
26043;BME280;13818;52.156;5.382;2023-05-08T12:47:47;101818.66;;;22.26;100.00
26043;BME280;13818;52.156;5.382;2023-05-08T12:50:14;101814.25;;;22.37;100.00